Time;durP1;ratioP1;P1;durP2;ratioP2;P2;SDS_P1;SDS_P2;PMS_P1;PMS_P2;Temp;Humidity;BMP_temperature;BMP_pressure;BME280_temperature;BME280_humidity;BME280_pressure;Samples;Min_cycle;Max_cycle;Signal;HPM_P1;HPM_P2
2022/11/11 00:00:00;;;;;;;7.22;5.43;;;;;;;16.54;51.59;94754.50;5070595;28;20036;-84
2022/11/11 00:02:26;;;;;;;6.45;4.95;;;;;;;16.54;51.08;94753.72;5072113;28;20039;-84
2022/11/11 00:04:52;;;;;;;6.28;4.97;;;;;;;16.53;51.20;94754.94;5091075;28;20044;-84
2022/11/11 00:07:18;;;;;;;6.32;4.57;;;;;;;16.54;51.71;94751.75;5107100;28;20036;-84
2022/11/11 00:09:43;;;;;;;6.90;5.38;;;;;;;16.54;51.10;94748.28;5107013;28;20450;-84
2022/11/11 00:12:08;;;;;;;6.35;4.22;;;;;;;16.53;51.48;94752.22;5108537;28;20044;-85
2022/11/11 00:14:34;;;;;;;8.85;4.63;;;;;;;16.53;50.84;94742.06;5110610;27;20032;-85
2022/11/11 00:25:13;;;;;;;5.38;4.18;;;;;;;16.53;51.25;94744.78;5105330;28;20046;-85
2022/11/11 00:27:38;;;;;;;5.07;3.80;;;;;;;16.54;51.36;94748.28;5089290;28;20383;-84
2022/11/11 00:30:04;;;;;;;4.57;3.58;;;;;;;16.58;51.51;94743.41;5084451;28;20047;-85
2022/11/11 00:32:32;;;;;;;5.55;4.07;;;;;;;16.54;51.30;94740.84;5072449;28;20032;-84
2022/11/11 00:37:44;;;;;;;5.50;3.58;;;;;;;16.54;51.50;94745.53;5088924;28;20047;-84
2022/11/11 00:40:10;;;;;;;6.18;4.43;;;;;;;16.54;51.19;94743.56;5105604;27;20031;-84
2022/11/11 00:42:36;;;;;;;4.90;3.88;;;;;;;16.51;51.06;94739.03;5092439;28;20028;-84
2022/11/11 00:45:01;;;;;;;4.50;3.65;;;;;;;16.55;51.43;94738.88;5107727;28;20119;-84
2022/11/11 00:53:02;;;;;;;4.07;3.00;;;;;;;16.52;51.69;94735.09;5110250;28;20042;-84
2022/11/11 00:55:28;;;;;;;6.30;4.10;;;;;;;16.49;51.15;94730.56;5107964;28;20058;-84
2022/11/11 00:57:53;;;;;;;5.20;3.80;;;;;;;16.49;51.13;94732.53;5108509;28;20424;-84
2022/11/11 01:00:18;;;;;;;6.13;4.57;;;;;;;16.48;51.35;94728.28;5106711;28;20525;-85
2022/11/11 01:02:44;;;;;;;5.07;4.35;;;;;;;16.49;51.47;94735.25;5108675;28;20054;-84
2022/11/11 01:05:09;;;;;;;4.90;3.75;;;;;;;16.46;51.28;94724.06;5090829;28;20032;-85
2022/11/11 01:07:35;;;;;;;5.00;3.72;;;;;;;16.49;51.17;94722.38;5105071;28;20086;-85
2022/11/11 01:10:00;;;;;;;8.00;3.92;;;;;;;16.51;50.88;94730.84;5076869;28;20044;-84
2022/11/11 01:12:25;;;;;;;5.25;3.60;;;;;;;16.50;51.12;94732.06;5105521;28;20391;-85
2022/11/11 01:14:52;;;;;;;4.72;3.50;;;;;;;16.48;51.31;94739.97;5091231;28;20040;-84
2022/11/11 01:17:18;;;;;;;4.13;3.25;;;;;;;16.49;51.49;94729.81;5089858;28;20040;-85
2022/11/11 01:19:43;;;;;;;4.20;3.20;;;;;;;16.51;51.22;94725.38;5085656;28;20537;-84
2022/11/11 01:22:08;;;;;;;4.93;3.65;;;;;;;16.49;51.00;94719.63;5104172;28;20043;-85
2022/11/11 01:24:36;;;;;;;4.55;3.70;;;;;;;16.49;51.18;94716.91;5090694;28;20057;-84
2022/11/11 01:27:01;;;;;;;4.70;3.58;;;;;;;16.51;51.08;94724.63;5087102;28;20044;-84
2022/11/11 01:29:27;;;;;;;4.63;3.28;;;;;;;16.51;51.48;94730.84;5087735;28;20028;-84
2022/11/11 01:31:52;;;;;;;4.47;3.63;;;;;;;16.50;50.78;94732.06;5107907;28;20082;-84
2022/11/11 01:34:17;;;;;;;4.35;3.47;;;;;;;16.50;50.70;94720.41;5107703;28;20043;-85
2022/11/11 01:36:43;;;;;;;3.83;3.13;;;;;;;16.47;51.14;94733.00;5101544;28;20089;-84
2022/11/11 01:39:08;;;;;;;5.07;3.30;;;;;;;16.46;50.65;94729.50;5106688;28;20090;-85
2022/11/11 01:41:37;;;;;;;4.53;3.55;;;;;;;16.45;51.25;94733.47;5096649;28;20121;-85
2022/11/11 01:44:16;;;;;;;4.68;3.65;;;;;;;16.45;51.03;94735.47;5071254;28;20095;-85
2022/11/11 01:46:54;;;;;;;4.72;3.70;;;;;;;16.47;51.18;94738.47;5071211;28;20089;-85
2022/11/11 01:49:46;;;;;;;3.60;2.95;;;;;;;16.46;51.25;94740.44;5091550;28;20043;-84
2022/11/11 01:52:18;;;;;;;3.60;2.75;;;;;;;16.44;51.23;94731.97;5106944;28;20046;-84
2022/11/11 01:54:54;;;;;;;2.78;2.45;;;;;;;16.45;51.34;94730.00;5096725;28;20071;-84
2022/11/11 01:57:36;;;;;;;4.75;3.03;;;;;;;16.46;50.84;94728.75;5086310;28;20127;-84
2022/11/11 02:00:06;;;;;;;3.95;2.97;;;;;;;16.45;51.36;94721.81;5105045;28;20064;-85
2022/11/11 02:02:38;;;;;;;3.60;2.42;;;;;;;16.47;51.21;94724.81;5070283;28;20047;-85
2022/11/11 02:07:49;;;;;;;3.95;2.83;;;;;;;16.43;50.80;94722.28;5087626;28;20149;-84
2022/11/11 02:10:17;;;;;;;3.33;2.55;;;;;;;16.44;50.65;94715.59;5069209;28;20036;-84
2022/11/11 02:15:26;;;;;;;4.22;2.75;;;;;;;16.46;50.79;94728.75;5086915;28;20173;-84
2022/11/11 02:17:52;;;;;;;3.83;2.40;;;;;;;16.44;51.25;94725.75;5089216;28;20058;-84
2022/11/11 02:20:23;;;;;;;4.90;2.65;;;;;;;16.46;51.05;94724.06;5107856;28;20032;-84
2022/11/11 02:22:56;;;;;;;3.08;2.42;;;;;;;16.43;51.13;94722.28;5086575;28;20047;-84
2022/11/11 02:25:23;;;;;;;3.28;2.30;;;;;;;16.45;51.22;94728.00;5069810;28;20036;-84
2022/11/11 02:27:50;;;;;;;3.70;2.65;;;;;;;16.44;50.91;94726.53;5088582;28;20043;-84
2022/11/11 02:30:17;;;;;;;3.47;2.45;;;;;;;16.43;50.72;94722.28;5106751;28;20046;-85
2022/11/11 02:32:48;;;;;;;3.00;2.50;;;;;;;16.44;50.70;94725.75;5108273;28;20123;-85
2022/11/11 02:35:19;;;;;;;3.17;2.63;;;;;;;16.42;51.06;94720.00;5102704;28;20417;-85
2022/11/11 02:37:46;;;;;;;3.28;2.55;;;;;;;16.41;51.12;94719.25;5071573;28;20040;-84
2022/11/11 02:40:13;;;;;;;3.22;2.50;;;;;;;16.46;50.62;94723.31;5089989;28;20178;-85
2022/11/11 02:42:38;;;;;;;3.17;2.17;;;;;;;16.48;51.31;94728.28;5070215;28;20040;-85
2022/11/11 02:45:04;;;;;;;3.78;2.20;;;;;;;16.45;51.18;94738.91;5088309;28;20074;-85
2022/11/11 02:47:29;;;;;;;3.15;2.17;;;;;;;16.42;50.98;94739.88;5095690;28;20032;-85
2022/11/11 02:49:55;;;;;;;2.95;2.08;;;;;;;16.43;51.14;94737.91;5088669;28;20062;-84
2022/11/11 02:52:20;;;;;;;2.78;2.13;;;;;;;16.43;50.77;94746.84;5103501;27;20036;-84
2022/11/11 02:54:46;;;;;;;3.25;2.30;;;;;;;16.44;50.95;94740.16;5094220;28;20031;-84
2022/11/11 02:57:12;;;;;;;3.40;2.47;;;;;;;16.43;51.25;94741.38;5093462;28;20046;-84
2022/11/11 02:59:38;;;;;;;3.05;2.47;;;;;;;16.43;50.71;94741.38;5104933;28;20093;-84
2022/11/11 03:02:04;;;;;;;4.05;2.40;;;;;;;16.45;50.92;94747.09;5063072;28;20120;-85
2022/11/11 03:04:30;;;;;;;2.90;2.10;;;;;;;16.42;50.92;94744.56;5098321;28;20388;-84
2022/11/11 03:06:55;;;;;;;2.42;1.77;;;;;;;16.43;50.81;94746.84;5090073;28;20032;-84
2022/11/11 03:09:20;;;;;;;3.17;1.92;;;;;;;16.42;50.58;94750.78;5106169;28;20045;-84
2022/11/11 03:11:46;;;;;;;1.75;1.60;;;;;;;16.42;50.91;94747.31;5070143;28;20032;-84
2022/11/11 03:14:11;;;;;;;2.63;1.98;;;;;;;16.41;51.35;94752.00;5110648;28;20040;-85
2022/11/11 03:19:21;;;;;;;2.25;1.73;;;;;;;16.40;50.74;94764.16;5081153;28;20097;-84
2022/11/11 03:21:47;;;;;;;2.50;2.17;;;;;;;16.40;50.72;94758.69;5096609;28;20359;-85
2022/11/11 03:24:13;;;;;;;2.40;2.00;;;;;;;16.40;50.82;94774.31;5110046;28;20036;-84
2022/11/11 03:26:38;;;;;;;2.13;1.92;;;;;;;16.40;51.28;94760.66;5088251;28;20051;-85
2022/11/11 03:29:03;;;;;;;2.78;2.13;;;;;;;16.40;50.66;94764.16;5088541;28;20052;-85
2022/11/11 03:31:29;;;;;;;2.53;2.00;;;;;;;16.37;50.98;94761.59;5089970;28;20040;-84
2022/11/11 03:33:54;;;;;;;2.97;2.15;;;;;;;16.37;50.67;94758.84;5068409;28;20395;-84
2022/11/11 03:38:14;;;;;;;1.70;1.50;;;;;;;16.39;50.80;94754.44;5096532;27;20040;-84
2022/11/11 03:39:05;;;;;;;2.28;1.90;;;;;;;16.39;50.83;94759.91;5089468;28;20032;-84
2022/11/11 03:41:31;;;;;;;2.03;1.70;;;;;;;16.39;50.82;94754.44;5090747;28;20382;-84
2022/11/11 03:43:56;;;;;;;3.13;2.00;;;;;;;16.38;50.88;94750.22;5103162;28;20084;-84
2022/11/11 03:46:21;;;;;;;2.28;1.80;;;;;;;16.40;50.93;94753.22;5110897;27;20159;-85
2022/11/11 03:48:47;;;;;;;3.08;1.98;;;;;;;16.39;51.09;94756.41;5096545;28;20040;-84
2022/11/11 03:51:13;;;;;;;2.30;1.80;;;;;;;16.38;50.74;94755.66;5089278;28;20033;-84
2022/11/11 03:53:38;;;;;;;2.53;2.13;;;;;;;16.37;50.81;94756.13;5091972;28;20080;-84
2022/11/11 03:56:03;;;;;;;2.85;1.92;;;;;;;16.36;50.75;94755.38;5092541;28;20037;-85
2022/11/11 03:58:29;;;;;;;1.88;1.50;;;;;;;16.42;50.86;94763.69;5109318;28;20062;-84
2022/11/11 04:00:55;;;;;;;2.40;1.83;;;;;;;16.41;50.96;94764.91;5087539;28;20040;-84
2022/11/11 04:11:36;;;;;;;2.70;1.90;;;;;;;16.40;50.59;94758.69;5090410;28;20513;-85
2022/11/11 04:16:53;;;;;;;2.05;1.52;;;;;;;16.36;50.97;94741.72;5110001;27;20453;-84
2022/11/11 04:22:03;;;;;;;2.38;1.30;;;;;;;16.36;50.77;94752.66;5074240;28;20078;-85
2022/11/11 04:27:13;;;;;;;1.98;1.40;;;;;;;16.37;50.91;94745.22;5074670;28;20039;-84
2022/11/11 04:29:39;;;;;;;1.90;1.50;;;;;;;16.38;50.88;94746.72;5055565;28;20406;-84
2022/11/11 04:34:50;;;;;;;1.58;1.45;;;;;;;16.36;50.97;94760.06;5109144;28;20469;-84
2022/11/11 04:37:16;;;;;;;2.50;1.30;;;;;;;16.34;50.72;94757.81;5067777;28;20036;-84
2022/11/11 04:42:26;;;;;;;2.30;1.45;;;;;;;16.36;50.50;94769.03;5108534;28;20145;-84
2022/11/11 04:47:36;;;;;;;1.70;1.40;;;;;;;16.35;50.33;94770.25;5074182;28;20039;-84
2022/11/11 04:50:02;;;;;;;1.85;1.20;;;;;;;16.39;50.79;94778.25;5091819;28;20044;-84
2022/11/11 04:52:30;;;;;;;2.95;1.40;;;;;;;16.35;50.55;94762.03;5087641;28;20062;-84
2022/11/11 04:57:41;;;;;;;2.42;1.40;;;;;;;16.36;51.09;94777.19;5094387;28;20059;-85
2022/11/11 05:00:08;;;;;;;2.17;1.45;;;;;;;16.37;50.66;94777.97;5090721;28;20494;-85
2022/11/11 05:05:18;;;;;;;1.20;1.10;;;;;;;16.35;50.51;94777.66;5083312;28;20078;-85
2022/11/11 05:10:27;;;;;;;1.85;1.20;;;;;;;16.38;51.02;94791.16;5073765;28;20565;-85
2022/11/11 05:12:53;;;;;;;1.40;1.30;;;;;;;16.40;50.71;94794.16;5107631;28;20032;-84
2022/11/11 05:26:17;;;;;;;2.22;1.33;;;;;;;16.35;50.69;94802.22;5108067;28;20034;-85
2022/11/11 05:28:42;;;;;;;1.67;1.05;;;;;;;16.32;50.53;94797.69;5091166;28;20036;-84
2022/11/11 05:31:08;;;;;;;4.63;3.13;;;;;;;16.33;50.69;94810.13;5087562;28;20521;-85
2022/11/11 05:33:33;;;;;;;3.00;2.13;;;;;;;16.32;50.68;94806.63;5087501;28;20382;-83
2022/11/11 05:36:00;;;;;;;18.33;9.40;;;;;;;16.37;50.42;94813.44;5063550;28;20050;-84
2022/11/11 05:38:25;;;;;;;6.82;4.63;;;;;;;16.45;50.59;94814.63;5107227;28;20127;-85
2022/11/11 05:40:51;;;;;;;8.38;4.55;;;;;;;16.45;50.44;94817.34;5104106;28;20483;-84
2022/11/11 05:43:16;;;;;;;7.93;5.75;;;;;;;16.49;50.35;94812.44;5082108;28;20045;-84
2022/11/11 05:45:42;;;;;;;9.38;7.18;;;;;;;16.50;50.12;94813.97;5087326;28;20309;-83
2022/11/11 05:48:07;;;;;;;44.35;11.88;;;;;;;16.52;50.10;94803.34;5088597;28;20506;-85
2022/11/11 05:50:35;;;;;;;16.92;8.52;;;;;;;16.53;50.53;94802.13;5080434;28;20065;-84
2022/11/11 05:53:01;;;;;;;22.77;6.22;;;;;;;16.41;47.98;94817.50;5106629;28;20122;-83
2022/11/11 05:55:26;;;;;;;14.07;6.07;;;;;;;16.26;47.29;94816.66;5089484;28;20039;-84
2022/11/11 05:57:52;;;;;;;19.45;6.28;;;;;;;16.25;47.50;94820.59;5107120;28;20040;-84
2022/11/11 06:00:17;;;;;;;15.38;6.63;;;;;;;16.28;47.31;94818.94;5103884;28;20554;-84
2022/11/11 06:02:43;;;;;;;38.75;10.63;;;;;;;16.30;47.21;94830.13;5075835;28;20042;-84
2022/11/11 06:05:08;;;;;;;17.45;7.38;;;;;;;16.21;46.25;94828.22;5106377;28;20040;-84
2022/11/11 06:07:37;;;;;;;33.58;8.15;;;;;;;16.09;45.34;94838.13;5103014;28;20028;-83
2022/11/11 06:13:08;;;;;;;41.67;17.70;;;;;;;16.06;45.23;94839.03;5109001;28;20066;-84
2022/11/11 06:15:37;;;;;;;28.10;12.02;;;;;;;16.14;45.99;94838.72;5108221;28;20039;-85
2022/11/11 06:18:03;;;;;;;43.58;20.40;;;;;;;16.16;45.75;94839.75;5085744;28;20036;-86
2022/11/11 06:20:28;;;;;;;44.50;19.40;;;;;;;16.19;46.30;94843.53;5085016;28;20600;-83
2022/11/11 06:22:56;;;;;;;24.75;12.32;;;;;;;16.22;47.18;94854.28;5066511;28;20036;-82
2022/11/11 06:28:10;;;;;;;37.28;15.05;;;;;;;16.24;48.29;94862.03;5095187;28;20442;-83
2022/11/11 06:30:36;;;;;;;31.50;14.45;;;;;;;16.26;47.81;94862.28;5094122;28;20032;-83
2022/11/11 06:33:02;;;;;;;38.10;14.00;;;;;;;16.24;47.87;94862.75;5071711;28;20044;-83
2022/11/11 06:35:27;;;;;;;31.50;13.43;;;;;;;16.26;47.85;94863.06;5071215;28;20036;-83
2022/11/11 06:37:53;;;;;;;25.75;11.88;;;;;;;16.26;48.20;94870.47;5071434;28;20047;-83
2022/11/11 06:40:19;;;;;;;24.08;11.57;;;;;;;16.26;47.66;94871.22;5070153;28;20083;-82
2022/11/11 06:42:44;;;;;;;40.05;13.07;;;;;;;16.30;48.17;94868.34;5069798;28;20037;-82
2022/11/11 06:45:10;;;;;;;36.90;15.13;;;;;;;16.31;47.92;94880.78;5068064;28;20044;-83
2022/11/11 06:47:35;;;;;;;35.58;15.60;;;;;;;16.32;48.35;94888.50;5059742;28;20048;-84
2022/11/11 06:50:00;;;;;;;35.50;15.90;;;;;;;16.35;48.94;94881.38;5065500;28;20252;-84
2022/11/11 06:52:26;;;;;;;46.78;18.55;;;;;;;16.37;48.23;94889.84;5070392;28;20032;-84
2022/11/11 06:54:52;;;;;;;43.55;19.92;;;;;;;16.34;48.33;94888.78;5034529;28;20040;-83
2022/11/11 06:57:17;;;;;;;499.70;69.95;;;;;;;16.37;48.57;94892.56;5048440;28;20182;-84
2022/11/11 06:59:42;;;;;;;544.47;75.95;;;;;;;16.39;49.27;94890.16;5054503;28;20040;-83
2022/11/11 07:02:11;;;;;;;154.23;29.23;;;;;;;16.37;48.50;94881.66;5077557;28;20434;-83
2022/11/11 07:04:37;;;;;;;103.72;25.42;;;;;;;16.36;48.45;94891.81;5063309;28;20088;-85
2022/11/11 07:07:02;;;;;;;54.05;18.65;;;;;;;16.31;47.78;94895.16;5072283;28;20032;-86
2022/11/11 07:09:28;;;;;;;99.88;54.50;;;;;;;16.34;47.53;94891.53;5099261;28;20032;-81
2022/11/11 07:11:53;;;;;;;90.45;52.88;;;;;;;16.39;48.26;94887.41;5080415;28;20035;-83
2022/11/11 07:14:19;;;;;;;35.40;15.40;;;;;;;16.45;47.58;94888.31;5066234;28;20040;-83
2022/11/11 07:16:44;;;;;;;50.15;16.48;;;;;;;16.52;48.10;94889.94;5072724;28;20032;-83
2022/11/11 07:19:10;;;;;;;69.68;31.92;;;;;;;16.58;47.89;94893.53;5097568;28;20059;-83
2022/11/11 07:21:35;;;;;;;52.33;17.92;;;;;;;16.58;48.67;94891.56;5090969;28;20034;-83
2022/11/11 07:24:01;;;;;;;56.00;19.42;;;;;;;16.56;48.21;94896.72;5103052;28;20028;-83
2022/11/11 07:26:26;;;;;;;42.33;16.85;;;;;;;16.49;47.11;94882.66;5108587;28;20032;-83
2022/11/11 07:28:52;;;;;;;55.55;13.52;;;;;;;16.43;46.80;94894.22;5098290;28;20040;-84
2022/11/11 07:31:17;;;;;;;43.35;11.52;;;;;;;16.31;47.30;94886.22;5090231;28;20486;-84
2022/11/11 07:33:43;;;;;;;25.17;9.07;;;;;;;16.25;47.10;94885.34;5078539;28;20043;-84
2022/11/11 07:36:08;;;;;;;17.90;8.45;;;;;;;16.20;47.38;94897.66;5089649;28;20442;-84
2022/11/11 07:38:34;;;;;;;24.20;8.40;;;;;;;16.15;47.44;94892.06;5101395;28;20043;-85
2022/11/11 07:41:02;;;;;;;107.05;17.45;;;;;;;16.10;47.79;94894.19;5109280;28;20036;-84
2022/11/11 07:43:28;;;;;;;70.43;12.98;;;;;;;16.12;47.42;94896.47;5109627;28;20043;-85
2022/11/11 07:45:53;;;;;;;26.90;9.02;;;;;;;16.08;47.74;94890.41;5109618;28;20089;-86
2022/11/11 07:48:19;;;;;;;28.00;7.20;;;;;;;16.08;47.42;94887.69;5087544;28;20032;-85
2022/11/11 07:50:44;;;;;;;21.85;5.85;;;;;;;15.99;46.89;94888.47;5089820;27;20036;-84
2022/11/11 07:53:10;;;;;;;16.52;5.60;;;;;;;15.98;47.01;94889.69;5089196;28;20066;-85
2022/11/11 07:55:35;;;;;;;34.03;6.88;;;;;;;15.95;46.78;94881.66;5100701;27;21588;-85
2022/11/11 07:58:01;;;;;;;25.02;7.63;;;;;;;15.84;46.74;94886.84;5095226;28;20397;-85
2022/11/11 08:00:26;;;;;;;29.45;8.50;;;;;;;15.84;46.84;94882.13;5104056;27;20432;-84
2022/11/11 08:02:52;;;;;;;20.73;12.13;;;;;;;15.83;47.15;94888.81;5106213;27;20028;-84
2022/11/11 08:05:17;;;;;;;17.38;6.72;;;;;;;15.83;47.59;94882.59;5103013;28;20710;-83
2022/11/11 08:07:43;;;;;;;9.57;6.38;;;;;;;15.82;47.78;94886.53;5086457;28;20435;-83
2022/11/11 08:10:09;;;;;;;11.40;7.35;;;;;;;15.83;48.28;94885.31;5091443;28;20051;-85
2022/11/11 08:15:19;;;;;;;8.88;4.70;;;;;;;15.83;48.83;94886.06;5106461;28;20090;-86
2022/11/11 08:17:45;;;;;;;6.82;4.43;;;;;;;15.75;49.39;94884.91;5098055;28;20497;-85
2022/11/11 08:20:10;;;;;;;20.20;6.00;;;;;;;15.72;49.96;94883.09;5108143;28;20047;-87
2022/11/11 08:22:40;;;;;;;12.05;5.70;;;;;;;15.65;50.77;94875.22;5088067;28;20460;-86
2022/11/11 08:25:09;;;;;;;17.02;5.47;;;;;;;15.72;50.40;94877.63;5088861;27;20044;-84
2022/11/11 08:27:35;;;;;;;10.27;5.28;;;;;;;15.79;50.12;94877.31;5091752;28;20084;-86
2022/11/11 08:30:01;;;;;;;10.73;5.65;;;;;;;15.84;50.99;94876.69;5087630;28;20513;-86
2022/11/11 08:32:26;;;;;;;7.28;4.78;;;;;;;15.90;50.13;94874.84;5080274;28;20036;-85
2022/11/11 08:34:52;;;;;;;9.77;4.57;;;;;;;15.96;50.02;94892.13;5087035;28;20040;-82
2022/11/11 08:37:18;;;;;;;5.88;4.28;;;;;;;16.01;50.07;94894.22;5106385;28;20047;-87
2022/11/11 08:39:43;;;;;;;5.35;3.78;;;;;;;16.07;50.36;94911.47;5097926;28;20421;-86
2022/11/11 08:42:09;;;;;;;7.57;3.22;;;;;;;16.11;50.22;94906.63;5088850;28;20052;-86
2022/11/11 08:44:34;;;;;;;6.45;3.67;;;;;;;16.15;51.30;94903.72;5078586;28;20040;-87
2022/11/11 08:47:00;;;;;;;6.30;4.28;;;;;;;16.19;50.55;94907.06;5086028;28;20035;-88
2022/11/11 08:49:26;;;;;;;7.22;3.15;;;;;;;16.26;51.09;94903.22;5100416;28;20039;-84
2022/11/11 08:51:51;;;;;;;4.38;3.05;;;;;;;16.31;51.62;94897.91;5074705;28;20550;-84
2022/11/11 08:54:19;;;;;;;4.90;3.88;;;;;;;16.36;50.13;94891.06;5100351;27;20383;-85
2022/11/11 08:56:45;;;;;;;12.65;5.65;;;;;;;16.28;50.13;94900.78;5094978;28;20402;-85
2022/11/11 08:59:10;;;;;;;15.32;6.30;;;;;;;16.13;50.51;94900.69;5100159;27;20039;-86
2022/11/11 09:01:36;;;;;;;11.23;5.75;;;;;;;16.12;50.57;94896.47;5072372;28;20035;-85
2022/11/11 09:04:01;;;;;;;10.65;6.28;;;;;;;16.06;50.89;94898.28;5073163;28;20455;-85
2022/11/11 09:06:27;;;;;;;14.60;7.20;;;;;;;15.98;51.49;94897.13;5107216;28;20646;-85
2022/11/11 09:08:53;;;;;;;10.82;6.15;;;;;;;16.01;51.31;94912.56;5073240;28;20039;-85
2022/11/11 09:11:18;;;;;;;15.70;6.18;;;;;;;16.02;51.84;94925.00;5082935;28;20507;-85
2022/11/11 09:13:45;;;;;;;11.95;4.93;;;;;;;16.04;51.71;94934.19;5070753;28;20042;-84
2022/11/11 09:16:10;;;;;;;16.73;5.75;;;;;;;16.08;51.63;94929.34;5078942;28;20138;-83
2022/11/11 09:18:36;;;;;;;8.98;6.03;;;;;;;16.13;51.41;94935.41;5089678;28;20080;-84
2022/11/11 09:21:02;;;;;;;15.40;7.13;;;;;;;16.17;51.31;94938.75;5082715;28;20043;-84
2022/11/11 09:23:27;;;;;;;42.22;9.38;;;;;;;16.20;51.58;94932.38;5089407;28;20038;-85
2022/11/11 09:25:53;;;;;;;20.25;6.32;;;;;;;16.23;51.61;94932.22;5071865;28;20131;-85
2022/11/11 09:28:18;;;;;;;22.17;9.63;;;;;;;16.22;50.74;94944.34;5069848;28;20040;-85
2022/11/11 09:30:43;;;;;;;16.08;7.40;;;;;;;16.18;52.05;94945.72;5068687;28;20051;-85
2022/11/11 09:33:11;;;;;;;73.95;9.52;;;;;;;16.16;51.98;94937.97;5067427;28;20457;-84
2022/11/11 09:35:41;;;;;;;24.55;6.68;;;;;;;16.06;52.61;94925.56;5102019;28;20134;-83
2022/11/11 09:38:07;;;;;;;126.40;17.02;;;;;;;16.03;52.95;94927.22;5073556;28;20042;-85
2022/11/11 09:40:51;;;;;;;96.05;12.02;;;;;;;16.01;53.02;94935.16;5071884;28;20058;-84
2022/11/11 09:43:24;;;;;;;193.77;20.73;;;;;;;16.00;52.97;94949.25;5085841;28;20056;-82
2022/11/11 09:46:20;;;;;;;100.63;13.48;;;;;;;16.02;53.24;94944.81;5069320;28;20044;-84
2022/11/11 09:48:57;;;;;;;125.68;14.27;;;;;;;15.99;53.54;94947.72;5068514;28;20631;-85
2022/11/11 09:51:32;;;;;;;61.58;9.18;;;;;;;15.93;53.59;94938.63;5100778;27;20151;-85
2022/11/11 09:53:59;;;;;;;61.13;8.82;;;;;;;15.95;53.49;94934.25;5070757;28;20110;-85
2022/11/11 09:56:25;;;;;;;217.57;22.40;;;;;;;15.96;53.57;94932.28;5069254;28;20024;-85
2022/11/11 09:58:56;;;;;;;433.65;42.65;;;;;;;15.96;53.58;94924.84;5067437;28;20028;-85
2022/11/11 10:01:24;;;;;;;282.75;29.77;;;;;;;15.95;53.17;94920.59;5059985;28;20035;-85
2022/11/11 10:04:01;;;;;;;323.45;29.88;;;;;;;16.00;53.32;94917.25;5086202;28;20054;-86
2022/11/11 10:06:27;;;;;;;295.58;26.83;;;;;;;15.98;53.73;94908.78;5063122;28;20036;-85
2022/11/11 10:09:07;;;;;;;73.68;9.68;;;;;;;16.00;54.11;94911.81;5084119;28;20055;-85
2022/11/11 10:11:46;;;;;;;;;;;;;;;16.03;53.52;94923.75;5078309;28;20082;-85
2022/11/11 10:14:11;;;;;;;1999.90;279.77;;;;;;;15.98;54.78;94916.97;5102464;28;19933;-85
2022/11/11 10:16:53;;;;;;;1766.50;218.95;;;;;;;16.02;54.25;94927.72;5090912;28;20052;-86
2022/11/11 10:19:48;;;;;;;475.88;43.30;;;;;;;15.97;54.49;94931.81;5100480;28;20050;-84
2022/11/11 10:22:20;;;;;;;383.52;39.90;;;;;;;15.96;54.64;94927.56;5071490;28;20040;-84
2022/11/11 10:24:52;;;;;;;197.68;22.63;;;;;;;15.95;54.46;94922.56;5092093;28;20078;-83
2022/11/11 10:27:20;;;;;;;157.10;22.77;;;;;;;15.98;54.08;94924.38;5062116;28;20631;-84
2022/11/11 10:29:45;;;;;;;95.30;16.20;;;;;;;15.95;54.10;94919.84;5082428;28;20058;-84
2022/11/11 10:32:15;;;;;;;64.72;12.13;;;;;;;15.99;53.75;94912.25;5096339;28;20394;-84
2022/11/11 10:34:42;;;;;;;43.33;8.85;;;;;;;15.96;53.77;94908.47;5087600;28;20398;-83
2022/11/11 10:37:19;;;;;;;40.95;7.85;;;;;;;15.99;53.06;94904.09;5067269;28;20075;-84
2022/11/11 10:40:02;;;;;;;104.32;14.18;;;;;;;16.01;53.27;94909.84;5049806;28;20048;-86
2022/11/11 10:42:28;;;;;;;47.08;9.98;;;;;;;16.01;52.52;94905.13;5071744;28;20040;-86
2022/11/11 10:44:58;;;;;;;45.42;9.82;;;;;;;15.99;52.87;94909.53;5069125;28;20147;-88
2022/11/11 10:47:43;;;;;;;178.70;19.05;;;;;;;15.96;53.19;94900.31;5049118;28;20085;-87
2022/11/11 10:50:19;;;;;;;99.20;20.20;;;;;;;15.98;53.26;94908.78;5077108;28;20080;-83
2022/11/11 10:52:49;;;;;;;78.75;19.33;;;;;;;15.97;52.75;94907.28;5039030;28;20491;-85
2022/11/11 10:55:39;;;;;;;55.60;18.00;;;;;;;15.93;53.14;94895.75;5055819;28;20036;-85
2022/11/11 10:58:14;;;;;;;50.72;13.65;;;;;;;15.96;52.75;94896.81;5074218;28;20075;-85
2022/11/11 11:00:39;;;;;;;49.35;11.75;;;;;;;15.99;52.77;94895.91;5082859;28;20044;-85
2022/11/11 11:03:31;;;;;;;18.83;7.68;;;;;;;15.91;53.07;94900.91;5050025;28;20097;-85
2022/11/11 11:06:09;;;;;;;33.22;7.65;;;;;;;15.91;52.69;94900.91;5066325;28;20040;-84
2022/11/11 11:08:38;;;;;;;14.35;6.15;;;;;;;15.91;52.59;94898.19;5094693;28;20032;-86
2022/11/11 11:11:17;;;;;;;16.35;6.10;;;;;;;15.92;52.61;94899.69;5081746;28;20040;-85
2022/11/11 11:13:51;;;;;;;22.95;6.25;;;;;;;15.96;52.33;94894.09;5103234;28;20512;-84
2022/11/11 11:16:24;;;;;;;13.85;5.43;;;;;;;15.97;52.37;94899.09;5067423;28;20060;-84
2022/11/11 11:19:17;;;;;;;34.75;5.88;;;;;;;15.98;52.18;94888.94;5092478;28;20477;-83
2022/11/11 11:21:54;;;;;;;18.73;5.80;;;;;;;16.01;52.10;94893.47;5093306;27;20090;-83
2022/11/11 11:24:27;;;;;;;15.13;5.28;;;;;;;16.01;52.07;94896.97;5105478;28;20040;-83
2022/11/11 11:26:54;;;;;;;17.17;8.95;;;;;;;16.05;51.92;94886.63;5070798;28;20087;-83
2022/11/11 11:29:31;;;;;;;18.38;7.10;;;;;;;16.07;52.37;94892.38;5086753;28;20062;-84
2022/11/11 11:32:20;;;;;;;13.18;6.70;;;;;;;16.06;51.91;94888.13;5089186;28;20053;-84
2022/11/11 11:34:53;;;;;;;18.95;7.88;;;;;;;16.10;52.22;94885.25;5088786;28;20036;-83
2022/11/11 11:37:19;;;;;;;21.10;8.32;;;;;;;16.12;51.99;94877.38;5099297;27;20050;-84
2022/11/11 11:39:45;;;;;;;13.02;6.47;;;;;;;16.11;52.12;94876.59;5098888;28;20406;-84
2022/11/11 11:42:32;;;;;;;11.52;7.20;;;;;;;16.13;52.43;94889.78;5108746;28;20043;-84
2022/11/11 11:45:28;;;;;;;15.75;7.57;;;;;;;16.13;52.28;94887.06;5104410;28;20059;-84
2022/11/11 11:47:57;;;;;;;11.75;7.55;;;;;;;16.15;52.20;94890.09;5091560;28;20059;-83
2022/11/11 11:50:30;;;;;;;10.80;6.93;;;;;;;16.19;52.56;94890.69;5101799;28;20055;-84
2022/11/11 11:53:18;;;;;;;18.23;8.63;;;;;;;16.22;52.20;94897.94;5108589;28;20040;-84
2022/11/11 11:55:48;;;;;;;15.07;8.00;;;;;;;16.20;52.05;94889.47;5108813;28;20594;-83
2022/11/11 11:58:29;;;;;;;17.63;8.73;;;;;;;16.22;52.06;94881.59;5092087;28;20047;-83
2022/11/11 12:01:00;;;;;;;17.42;8.15;;;;;;;16.22;52.01;94891.75;5091109;28;20028;-84
2022/11/11 12:03:48;;;;;;;12.88;7.10;;;;;;;16.22;52.07;94878.09;5109432;28;20088;-84
2022/11/11 12:06:26;;;;;;;20.00;7.68;;;;;;;16.25;51.92;94880.63;5094569;28;20036;-84
2022/11/11 12:09:08;;;;;;;15.10;6.35;;;;;;;16.24;51.77;94881.13;5107545;28;20506;-84
2022/11/11 12:11:38;;;;;;;11.75;6.47;;;;;;;16.24;52.02;94892.03;5106582;28;20509;-84
2022/11/11 12:14:16;;;;;;;;;;;;;;;16.26;51.94;94889.56;5074847;28;20131;-84
2022/11/11 12:17:22;;;;;;;10.13;5.85;;;;;;;16.26;52.19;94893.06;5089323;28;19927;-84
2022/11/11 12:20:24;;;;;;;11.95;5.90;;;;;;;16.29;51.95;94899.56;5104876;28;20100;-84
2022/11/11 12:23:10;;;;;;;10.52;5.50;;;;;;;16.28;51.87;94893.38;5089416;28;20135;-84
2022/11/11 12:26:07;;;;;;;9.63;5.38;;;;;;;16.29;52.05;94894.13;5104560;28;20050;-84
2022/11/11 12:28:42;;;;;;;13.25;6.18;;;;;;;16.30;52.05;94879.25;5107256;28;20038;-83
2022/11/11 12:31:13;;;;;;;11.95;6.53;;;;;;;16.30;52.13;94877.28;5107377;28;20040;-84
2022/11/11 12:33:54;;;;;;;13.38;6.93;;;;;;;16.29;51.88;94864.84;5108459;28;20050;-83
2022/11/11 12:36:33;;;;;;;13.13;6.68;;;;;;;16.31;52.02;94861.66;5095091;28;20113;-84
2022/11/11 12:39:08;;;;;;;17.42;6.50;;;;;;;16.32;51.86;94857.72;5057728;28;20047;-84
2022/11/11 12:41:51;;;;;;;10.13;5.47;;;;;;;16.34;52.05;94869.69;5102977;28;20047;-83
2022/11/11 12:44:17;;;;;;;13.75;5.88;;;;;;;16.33;51.85;94867.44;5091986;28;20039;-83
2022/11/11 12:47:01;;;;;;;21.33;7.03;;;;;;;16.34;51.75;94863.47;5074122;28;20040;-83
2022/11/11 12:50:07;;;;;;;23.65;9.85;;;;;;;16.38;51.86;94848.47;5086989;28;20343;-82
2022/11/11 12:53:06;;;;;;;46.55;11.38;;;;;;;16.42;52.16;94853.75;5082571;28;20128;-83